Time;durP1;ratioP1;P1;durP2;ratioP2;P2;SDS_P1;SDS_P2;PMS_P1;PMS_P2;Temp;Humidity;BMP_temperature;BMP_pressure;BME280_temperature;BME280_humidity;BME280_pressure;Samples;Min_cycle;Max_cycle;Signal;HPM_P1;HPM_P2
2023/09/25 00:00:20;;;;;;;3.95;1.60;;;;;;;;;;5077143;28;20032;-82
2023/09/25 00:02:47;;;;;;;4.22;2.03;;;;;;;;;;5063000;28;21397;-83
2023/09/25 00:05:15;;;;;;;3.42;1.63;;;;;;;;;;5054754;28;20044;-82
2023/09/25 00:07:41;;;;;;;2.55;1.55;;;;;;;;;;5074406;28;20051;-82
2023/09/25 00:10:07;;;;;;;2.90;1.80;;;;;;;;;;5048560;28;20117;-82
2023/09/25 00:12:33;;;;;;;5.10;1.67;;;;;;;;;;5047330;28;20033;-82
2023/09/25 00:14:58;;;;;;;3.28;1.55;;;;;;;;;;5045353;28;20028;-82
2023/09/25 00:17:23;;;;;;;4.03;1.70;;;;;;;;;;5052568;28;20028;-82
2023/09/25 00:19:49;;;;;;;3.40;1.70;;;;;;;;;;5070634;28;20426;-82
2023/09/25 00:22:14;;;;;;;4.65;1.80;;;;;;;;;;5055124;28;20460;-83
2023/09/25 00:24:40;;;;;;;3.22;1.60;;;;;;;;;;5051360;28;20032;-82
2023/09/25 00:27:06;;;;;;;3.10;1.70;;;;;;;;;;5066559;28;20025;-82
2023/09/25 00:29:31;;;;;;;7.25;1.80;;;;;;;;;;5054829;28;20025;-82
2023/09/25 00:31:57;;;;;;;3.05;1.60;;;;;;;;;;5052088;28;20035;-82
2023/09/25 00:34:22;;;;;;;3.25;1.80;;;;;;;;;;5056165;28;20028;-82
2023/09/25 00:36:47;;;;;;;3.58;1.80;;;;;;;;;;5052450;28;20028;-83
2023/09/25 00:39:13;;;;;;;3.20;1.65;;;;;;;;;;5047492;28;20031;-82
2023/09/25 00:41:38;;;;;;;3.58;1.80;;;;;;;;;;5068155;28;20111;-83
2023/09/25 00:44:04;;;;;;;4.93;1.63;;;;;;;;;;5063241;28;20033;-82
2023/09/25 00:46:30;;;;;;;4.43;1.85;;;;;;;;;;5071089;28;20062;-82
2023/09/25 00:48:56;;;;;;;2.95;1.55;;;;;;;;;;5056118;28;20056;-83
2023/09/25 00:51:22;;;;;;;2.92;1.40;;;;;;;;;;5067441;28;20074;-82
2023/09/25 00:53:48;;;;;;;4.30;1.70;;;;;;;;;;5050195;28;20053;-82
2023/09/25 00:56:14;;;;;;;3.08;1.58;;;;;;;;;;5073142;28;20028;-82
2023/09/25 00:58:39;;;;;;;5.13;1.90;;;;;;;;;;5051935;28;20025;-83
2023/09/25 01:01:07;;;;;;;5.05;2.10;;;;;;;;;;5055538;28;20024;-83
2023/09/25 01:03:33;;;;;;;3.40;1.65;;;;;;;;;;5070333;28;20029;-82
2023/09/25 01:05:59;;;;;;;2.88;1.60;;;;;;;;;;5053390;28;20020;-82
2023/09/25 01:08:25;;;;;;;2.85;1.48;;;;;;;;;;5070667;28;20078;-80
2023/09/25 01:10:50;;;;;;;4.07;1.85;;;;;;;;;;5070491;28;20025;-78
2023/09/25 01:13:16;;;;;;;4.13;1.83;;;;;;;;;;5054309;28;20472;-78
2023/09/25 01:15:41;;;;;;;2.75;1.55;;;;;;;;;;5047022;28;20454;-78
2023/09/25 01:18:07;;;;;;;3.22;1.80;;;;;;;;;;5071241;28;20032;-78
2023/09/25 01:20:33;;;;;;;3.95;1.55;;;;;;;;;;5051495;28;20444;-79
2023/09/25 01:22:58;;;;;;;4.20;2.17;;;;;;;;;;5053910;28;20115;-78
2023/09/25 01:25:24;;;;;;;3.20;1.60;;;;;;;;;;5051379;28;20025;-78
2023/09/25 01:27:50;;;;;;;4.13;1.83;;;;;;;;;;5049107;28;20048;-79
2023/09/25 01:30:16;;;;;;;3.33;1.70;;;;;;;;;;5054147;28;20540;-78
2023/09/25 01:32:44;;;;;;;3.22;1.67;;;;;;;;;;5052343;28;20115;-78
2023/09/25 01:35:17;;;;;;;4.68;1.77;;;;;;;;;;5067120;28;20025;-78
2023/09/25 01:37:43;;;;;;;3.70;1.95;;;;;;;;;;5067682;28;20053;-78
2023/09/25 01:40:15;;;;;;;2.92;1.75;;;;;;;;;;5060411;28;20111;-79
2023/09/25 01:42:41;;;;;;;3.60;1.67;;;;;;;;;;5046666;28;20027;-79
2023/09/25 01:45:08;;;;;;;4.30;1.85;;;;;;;;;;5047465;28;20028;-78
2023/09/25 01:47:35;;;;;;;3.40;1.77;;;;;;;;;;5060916;28;20040;-78
2023/09/25 01:50:00;;;;;;;3.85;1.73;;;;;;;;;;5047867;28;20020;-79
2023/09/25 01:52:28;;;;;;;4.18;2.03;;;;;;;;;;5066431;28;20048;-78
2023/09/25 01:54:53;;;;;;;3.65;1.88;;;;;;;;;;5065935;28;20495;-79
2023/09/25 01:57:19;;;;;;;3.25;1.80;;;;;;;;;;5070586;28;20025;-80
2023/09/25 01:59:44;;;;;;;4.75;1.80;;;;;;;;;;5052795;28;20070;-79
2023/09/25 02:02:09;;;;;;;5.18;2.00;;;;;;;;;;5058390;28;20074;-78
2023/09/25 02:04:35;;;;;;;3.80;2.17;;;;;;;;;;5056443;28;20040;-78
2023/09/25 02:07:00;;;;;;;3.85;1.85;;;;;;;;;;5051888;28;20028;-78
2023/09/25 02:09:25;;;;;;;3.00;1.60;;;;;;;;;;5070019;28;20032;-78
2023/09/25 02:11:51;;;;;;;4.07;1.90;;;;;;;;;;5071552;28;20032;-78
2023/09/25 02:14:16;;;;;;;6.03;1.80;;;;;;;;;;5073433;28;20024;-78
2023/09/25 02:16:41;;;;;;;4.13;2.10;;;;;;;;;;5052867;28;20040;-78
2023/09/25 02:19:07;;;;;;;2.80;1.60;;;;;;;;;;5052173;28;20106;-82
2023/09/25 02:21:32;;;;;;;3.38;1.90;;;;;;;;;;5049286;28;20031;-81
2023/09/25 02:23:58;;;;;;;3.10;1.73;;;;;;;;;;5057122;28;20482;-82
2023/09/25 02:26:23;;;;;;;3.45;1.80;;;;;;;;;;5068134;28;20103;-81
2023/09/25 02:28:48;;;;;;;3.53;1.90;;;;;;;;;;5064335;28;20052;-81
2023/09/25 02:31:14;;;;;;;3.33;1.90;;;;;;;;;;5045914;28;20471;-82
2023/09/25 02:33:39;;;;;;;3.38;1.90;;;;;;;;;;5045909;28;20118;-82
2023/09/25 02:36:11;;;;;;;3.33;1.80;;;;;;;;;;5060456;28;20032;-82
2023/09/25 02:38:36;;;;;;;3.58;1.80;;;;;;;;;;5045899;28;20028;-81
2023/09/25 02:41:02;;;;;;;4.93;1.92;;;;;;;;;;5062510;28;20469;-82
2023/09/25 02:43:27;;;;;;;3.70;1.60;;;;;;;;;;5043997;28;20527;-82
2023/09/25 02:45:53;;;;;;;3.67;1.95;;;;;;;;;;5045980;28;20397;-81
2023/09/25 02:48:18;;;;;;;4.10;1.85;;;;;;;;;;5058097;28;20055;-82
2023/09/25 02:50:45;;;;;;;3.50;1.92;;;;;;;;;;5046687;28;20447;-82
2023/09/25 02:53:11;;;;;;;3.60;1.88;;;;;;;;;;5042238;28;20218;-81
2023/09/25 02:55:36;;;;;;;3.50;1.75;;;;;;;;;;5062368;28;20486;-82
2023/09/25 02:58:02;;;;;;;4.10;1.80;;;;;;;;;;5046073;28;20040;-82
2023/09/25 03:00:27;;;;;;;3.42;1.80;;;;;;;;;;5065082;28;20028;-81
2023/09/25 03:02:52;;;;;;;3.15;1.77;;;;;;;;;;5059053;28;20058;-82
2023/09/25 03:05:19;;;;;;;3.45;1.90;;;;;;;;;;5047947;28;20055;-81
2023/09/25 03:07:44;;;;;;;3.13;1.90;;;;;;;;;;5050511;28;20032;-82
2023/09/25 03:10:10;;;;;;;3.45;1.77;;;;;;;;;;5057903;28;20031;-81
2023/09/25 03:12:39;;;;;;;3.17;1.70;;;;;;;;;;5063769;28;20583;-83
2023/09/25 03:15:04;;;;;;;3.53;1.98;;;;;;;;;;5045747;28;20032;-81
2023/09/25 03:17:32;;;;;;;3.50;1.70;;;;;;;;;;5060654;28;20036;-80
2023/09/25 03:19:58;;;;;;;3.70;2.15;;;;;;;;;;5059559;28;20028;-80
2023/09/25 03:22:23;;;;;;;3.55;1.75;;;;;;;;;;5040177;28;20021;-82
2023/09/25 03:24:49;;;;;;;6.57;2.03;;;;;;;;;;5049520;28;20365;-82
2023/09/25 03:27:15;;;;;;;3.53;1.83;;;;;;;;;;5062980;28;20396;-78
2023/09/25 03:29:41;;;;;;;3.70;1.98;;;;;;;;;;5063731;28;20091;-79
2023/09/25 03:32:07;;;;;;;5.13;2.03;;;;;;;;;;5042066;28;20174;-79
2023/09/25 03:34:32;;;;;;;3.58;1.80;;;;;;;;;;5061110;28;20033;-79
2023/09/25 03:36:57;;;;;;;3.90;1.90;;;;;;;;;;5057256;28;20405;-80
2023/09/25 03:39:23;;;;;;;3.85;2.03;;;;;;;;;;5056213;28;20035;-78
2023/09/25 03:41:48;;;;;;;3.78;1.67;;;;;;;;;;5056653;28;20044;-79
2023/09/25 03:44:13;;;;;;;3.42;1.73;;;;;;;;;;5042375;28;20025;-79
2023/09/25 03:46:38;;;;;;;4.10;1.80;;;;;;;;;;5059464;28;20032;-79
2023/09/25 03:49:06;;;;;;;3.55;1.73;;;;;;;;;;5057813;28;20029;-79
2023/09/25 03:51:35;;;;;;;3.92;2.10;;;;;;;;;;5042494;28;20783;-79
2023/09/25 03:54:01;;;;;;;3.08;1.77;;;;;;;;;;5039694;28;20469;-79
2023/09/25 03:56:27;;;;;;;3.42;1.85;;;;;;;;;;5061230;28;20077;-78
2023/09/25 03:58:52;;;;;;;5.20;2.70;;;;;;;;;;5051242;28;20062;-79
2023/09/25 04:01:18;;;;;;;3.65;1.80;;;;;;;;;;5062515;28;20095;-79
2023/09/25 04:03:43;;;;;;;4.85;2.13;;;;;;;;;;5065325;28;20068;-78
2023/09/25 04:06:09;;;;;;;4.20;2.08;;;;;;;;;;5064779;28;20021;-78
2023/09/25 04:08:35;;;;;;;4.00;1.95;;;;;;;;;;5055831;28;20079;-79
2023/09/25 04:11:00;;;;;;;5.50;1.90;;;;;;;;;;5067709;28;20024;-79
2023/09/25 04:13:26;;;;;;;3.17;1.83;;;;;;;;;;5072848;28;20090;-78
2023/09/25 04:15:53;;;;;;;4.60;1.95;;;;;;;;;;5068084;28;20024;-80
2023/09/25 04:18:18;;;;;;;3.10;1.70;;;;;;;;;;5066086;28;20039;-78
2023/09/25 04:20:45;;;;;;;3.97;2.03;;;;;;;;;;5046432;28;20024;-79
2023/09/25 04:23:12;;;;;;;3.60;1.90;;;;;;;;;;5068833;28;20031;-83
2023/09/25 04:25:37;;;;;;;3.95;2.00;;;;;;;;;;5066414;28;20028;-82
2023/09/25 04:28:03;;;;;;;4.05;1.70;;;;;;;;;;5063851;28;20059;-83
2023/09/25 04:30:28;;;;;;;4.85;2.10;;;;;;;;;;5049009;28;20025;-83
2023/09/25 04:32:54;;;;;;;6.03;2.00;;;;;;;;;;5052137;28;20027;-82
2023/09/25 04:35:21;;;;;;;4.72;2.00;;;;;;;;;;5066353;28;20439;-82
2023/09/25 04:37:46;;;;;;;3.85;2.00;;;;;;;;;;5062855;28;20052;-80
2023/09/25 04:40:22;;;;;;;3.28;1.85;;;;;;;;;;5068848;28;20102;-79
2023/09/25 04:42:48;;;;;;;4.72;1.95;;;;;;;;;;5066657;28;20546;-78
2023/09/25 04:45:18;;;;;;;4.38;2.00;;;;;;;;;;5048256;28;20112;-78
2023/09/25 04:47:44;;;;;;;6.50;2.08;;;;;;;;;;5062672;28;20478;-78
2023/09/25 04:50:10;;;;;;;3.47;1.98;;;;;;;;;;5031079;28;20808;-80
2023/09/25 04:52:36;;;;;;;5.28;2.30;;;;;;;;;;5060898;28;20039;-79
2023/09/25 04:55:06;;;;;;;4.43;2.00;;;;;;;;;;5065093;28;22157;-79
2023/09/25 04:57:31;;;;;;;4.07;2.15;;;;;;;;;;5044186;28;20024;-79
2023/09/25 04:59:56;;;;;;;3.50;1.92;;;;;;;;;;5063242;28;20025;-79
2023/09/25 05:02:22;;;;;;;4.35;1.90;;;;;;;;;;5050432;28;20569;-79
2023/09/25 05:04:47;;;;;;;5.15;2.15;;;;;;;;;;5048102;28;20020;-78
2023/09/25 05:07:12;;;;;;;4.40;1.98;;;;;;;;;;5070254;28;20031;-79
2023/09/25 05:09:38;;;;;;;3.80;1.77;;;;;;;;;;5049665;28;20017;-79
2023/09/25 05:12:03;;;;;;;4.47;1.92;;;;;;;;;;5051866;28;20506;-79
2023/09/25 05:14:29;;;;;;;4.32;1.80;;;;;;;;;;5060711;28;20499;-79
2023/09/25 05:16:55;;;;;;;3.35;1.83;;;;;;;;;;5066573;28;20515;-79
2023/09/25 05:19:21;;;;;;;6.20;1.88;;;;;;;;;;5067411;28;20025;-78
2023/09/25 05:21:46;;;;;;;3.70;2.10;;;;;;;;;;5064893;28;20063;-79
2023/09/25 05:24:11;;;;;;;4.43;2.25;;;;;;;;;;5071659;28;20021;-82
2023/09/25 05:26:37;;;;;;;3.30;2.00;;;;;;;;;;5048919;28;20017;-82
2023/09/25 05:29:03;;;;;;;5.20;2.33;;;;;;;;;;5069844;28;20378;-82
2023/09/25 05:31:28;;;;;;;4.00;1.98;;;;;;;;;;5050764;28;20033;-82
2023/09/25 05:33:54;;;;;;;3.30;1.98;;;;;;;;;;5068432;28;20106;-83
2023/09/25 05:36:20;;;;;;;3.60;1.92;;;;;;;;;;5046895;28;20492;-78
2023/09/25 05:38:45;;;;;;;3.78;1.90;;;;;;;;;;5058891;28;20025;-80
2023/09/25 05:41:11;;;;;;;4.30;2.22;;;;;;;;;;5044507;28;20027;-79
2023/09/25 05:43:36;;;;;;;5.85;2.45;;;;;;;;;;5057704;28;20051;-79
2023/09/25 05:46:01;;;;;;;5.68;2.30;;;;;;;;;;5038479;28;20025;-79
2023/09/25 05:48:27;;;;;;;3.70;2.08;;;;;;;;;;5050108;28;20027;-78
2023/09/25 05:50:53;;;;;;;4.30;2.33;;;;;;;;;;5058314;28;20023;-80
2023/09/25 05:53:19;;;;;;;4.53;2.25;;;;;;;;;;5058133;28;20031;-78
2023/09/25 05:55:44;;;;;;;4.13;2.30;;;;;;;;;;5041447;28;20024;-78
2023/09/25 05:58:10;;;;;;;3.70;1.98;;;;;;;;;;5062990;28;20498;-79
2023/09/25 06:00:35;;;;;;;6.07;2.17;;;;;;;;;;5043322;28;20487;-81
2023/09/25 06:03:00;;;;;;;4.45;2.20;;;;;;;;;;5048345;28;20435;-81
2023/09/25 06:05:26;;;;;;;3.97;2.03;;;;;;;;;;5066068;28;20429;-81
2023/09/25 06:07:51;;;;;;;5.95;2.20;;;;;;;;;;5063035;28;20112;-81
2023/09/25 06:10:18;;;;;;;4.22;2.17;;;;;;;;;;5073035;28;20417;-81
2023/09/25 06:12:44;;;;;;;5.85;2.03;;;;;;;;;;5045672;28;20071;-81
2023/09/25 06:15:09;;;;;;;4.07;2.03;;;;;;;;;;5062590;28;20029;-81
2023/09/25 06:17:36;;;;;;;5.38;2.33;;;;;;;;;;5047186;28;20093;-81
2023/09/25 06:20:03;;;;;;;5.18;2.30;;;;;;;;;;5048167;28;20029;-81
2023/09/25 06:22:28;;;;;;;4.75;2.05;;;;;;;;;;5039775;28;20531;-81
2023/09/25 06:24:53;;;;;;;5.10;2.25;;;;;;;;;;5051480;28;20024;-82
2023/09/25 06:27:19;;;;;;;5.80;2.33;;;;;;;;;;5048272;28;20033;-81
2023/09/25 06:29:44;;;;;;;4.93;2.72;;;;;;;;;;5045995;28;20153;-81
2023/09/25 06:32:10;;;;;;;3.88;2.10;;;;;;;;;;5044837;28;20024;-81
2023/09/25 06:34:36;;;;;;;4.65;2.47;;;;;;;;;;5050761;28;20139;-81
2023/09/25 06:37:01;;;;;;;7.28;2.70;;;;;;;;;;5072382;28;20127;-81
2023/09/25 06:39:27;;;;;;;5.05;2.30;;;;;;;;;;5064531;28;20032;-81
2023/09/25 06:41:52;;;;;;;5.38;2.83;;;;;;;;;;5066568;28;20039;-79
2023/09/25 06:44:19;;;;;;;7.18;2.67;;;;;;;;;;5067379;28;20024;-80
2023/09/25 06:46:45;;;;;;;6.30;2.22;;;;;;;;;;5056385;28;20115;-79
2023/09/25 06:49:10;;;;;;;5.70;2.67;;;;;;;;;;5070848;28;20025;-79
2023/09/25 06:51:35;;;;;;;5.18;2.80;;;;;;;;;;5070501;28;20021;-79
2023/09/25 06:54:01;;;;;;;6.38;2.65;;;;;;;;;;5054409;28;20048;-79
2023/09/25 06:56:26;;;;;;;5.53;2.47;;;;;;;;;;5049946;28;20127;-79
2023/09/25 06:58:52;;;;;;;4.35;2.40;;;;;;;;;;5045652;28;20036;-79
2023/09/25 07:01:18;;;;;;;4.85;2.55;;;;;;;;;;5065082;28;20391;-79
2023/09/25 07:03:44;;;;;;;4.25;2.55;;;;;;;;;;5064420;28;20626;-79
2023/09/25 07:06:09;;;;;;;4.50;2.20;;;;;;;;;;5046418;28;20035;-78
2023/09/25 07:08:35;;;;;;;5.07;2.70;;;;;;;;;;5049281;28;20120;-78
2023/09/25 07:11:00;;;;;;;5.60;2.42;;;;;;;;;;5054421;28;20379;-79
2023/09/25 07:13:26;;;;;;;4.13;2.80;;;;;;;;;;5051986;28;20020;-79
2023/09/25 07:15:51;;;;;;;9.05;3.70;;;;;;;;;;5057122;28;20523;-80
2023/09/25 07:18:17;;;;;;;5.43;2.83;;;;;;;;;;5063436;28;20412;-79
2023/09/25 07:20:45;;;;;;;4.13;2.72;;;;;;;;;;5063217;28;20039;-78
2023/09/25 07:23:11;;;;;;;5.50;2.85;;;;;;;;;;5073199;28;20031;-78
2023/09/25 07:25:36;;;;;;;4.45;2.60;;;;;;;;;;5055648;28;20469;-79
2023/09/25 07:28:02;;;;;;;5.72;2.85;;;;;;;;;;5062812;28;20032;-78
2023/09/25 07:30:27;;;;;;;6.15;2.50;;;;;;;;;;5071928;28;20021;-78
2023/09/25 07:32:52;;;;;;;6.35;2.75;;;;;;;;;;5047094;28;20027;-80
2023/09/25 07:35:18;;;;;;;5.20;2.70;;;;;;;;;;5064725;28;20384;-78
2023/09/25 07:37:44;;;;;;;4.82;2.60;;;;;;;;;;5066690;28;20024;-78
2023/09/25 07:40:13;;;;;;;4.97;2.78;;;;;;;;;;5048393;28;20342;-79
2023/09/25 07:42:42;;;;;;;5.13;2.95;;;;;;;;;;5068964;28;20107;-79
2023/09/25 07:45:22;;;;;;;5.93;2.63;;;;;;;;;;5059913;28;20155;-80
2023/09/25 07:47:48;;;;;;;5.43;2.53;;;;;;;;;;5050462;28;20032;-79
2023/09/25 07:50:13;;;;;;;3.95;2.60;;;;;;;;;;5056151;28;20098;-79
2023/09/25 07:52:40;;;;;;;4.75;2.78;;;;;;;;;;5050221;28;20426;-79
2023/09/25 07:55:08;;;;;;;4.40;2.83;;;;;;;;;;5067516;28;20041;-79
2023/09/25 07:57:39;;;;;;;7.15;2.60;;;;;;;;;;5069327;28;20020;-78
2023/09/25 08:00:22;;;;;;;6.72;3.00;;;;;;;;;;5067118;28;20025;-79
2023/09/25 08:02:47;;;;;;;5.40;2.88;;;;;;;;;;5055961;28;20036;-79
2023/09/25 08:05:18;;;;;;;5.07;2.92;;;;;;;;;;5069918;28;20499;-79
2023/09/25 08:07:44;;;;;;;6.50;3.55;;;;;;;;;;5057279;28;20510;-82
2023/09/25 08:10:10;;;;;;;4.45;2.92;;;;;;;;;;5053774;28;20020;-83
2023/09/25 08:12:36;;;;;;;4.97;2.67;;;;;;;;;;5054736;28;20032;-82
2023/09/25 08:15:01;;;;;;;3.85;2.42;;;;;;;;;;5051987;28;20443;-83
2023/09/25 08:17:27;;;;;;;5.55;3.00;;;;;;;;;;5050499;28;20039;-82
2023/09/25 08:19:52;;;;;;;5.22;2.78;;;;;;;;;;5082886;28;20032;-83
2023/09/25 08:22:18;;;;;;;4.80;2.80;;;;;;;;;;5056680;28;20377;-83
2023/09/25 08:24:43;;;;;;;4.32;2.88;;;;;;;;;;5054199;28;20025;-82
2023/09/25 08:27:09;;;;;;;5.32;2.80;;;;;;;;;;5049094;28;20017;-82
2023/09/25 08:29:35;;;;;;;4.40;2.60;;;;;;;;;;5052138;28;20028;-82
2023/09/25 08:32:01;;;;;;;6.00;2.78;;;;;;;;;;5063936;28;20488;-82
2023/09/25 08:34:27;;;;;;;4.57;2.60;;;;;;;;;;5043520;28;20020;-82
2023/09/25 08:36:52;;;;;;;5.13;3.03;;;;;;;;;;5053240;28;20548;-78
2023/09/25 08:39:18;;;;;;;3.88;2.38;;;;;;;;;;5047153;28;20120;-78
2023/09/25 08:41:44;;;;;;;5.80;2.83;;;;;;;;;;5050337;28;20025;-78
2023/09/25 08:44:10;;;;;;;4.32;2.50;;;;;;;;;;5055081;28;20074;-79
2023/09/25 08:46:35;;;;;;;6.30;2.30;;;;;;;;;;5050512;28;20427;-78
2023/09/25 08:49:02;;;;;;;5.93;2.60;;;;;;;;;;5071594;28;20028;-78
2023/09/25 08:51:34;;;;;;;5.28;2.38;;;;;;;;;;5057212;28;20023;-79
2023/09/25 08:54:02;;;;;;;7.43;2.40;;;;;;;;;;5045765;28;20477;-79
2023/09/25 08:56:29;;;;;;;6.05;2.30;;;;;;;;;;5055849;28;20055;-79
2023/09/25 08:58:56;;;;;;;7.82;2.97;;;;;;;;;;5056336;28;20368;-80
2023/09/25 09:01:22;;;;;;;4.53;2.10;;;;;;;;;;5051064;28;20031;-79
2023/09/25 09:03:48;;;;;;;4.00;2.08;;;;;;;;;;5056167;28;20119;-79
2023/09/25 09:06:13;;;;;;;5.85;2.92;;;;;;;;;;5050245;28;20017;-80
2023/09/25 09:08:38;;;;;;;4.38;2.08;;;;;;;;;;5050485;28;20032;-79
2023/09/25 09:11:10;;;;;;;4.80;2.30;;;;;;;;;;5064400;28;20017;-79
2023/09/25 09:13:49;;;;;;;6.78;2.40;;;;;;;;;;5072224;28;20025;-79
2023/09/25 09:16:19;;;;;;;4.82;2.30;;;;;;;;;;5060384;28;20024;-79
2023/09/25 09:18:46;;;;;;;4.15;2.40;;;;;;;;;;5048213;28;20024;-79
2023/09/25 09:21:38;;;;;;;5.45;2.50;;;;;;;;;;5068210;28;20434;-79
2023/09/25 09:24:05;;;;;;;4.70;1.95;;;;;;;;;;5061578;28;20120;-79
2023/09/25 09:26:32;;;;;;;5.35;2.50;;;;;;;;;;5065039;28;20075;-80
2023/09/25 09:28:57;;;;;;;8.77;2.70;;;;;;;;;;5065939;28;20067;-81
2023/09/25 09:31:23;;;;;;;4.20;2.30;;;;;;;;;;5050084;28;20021;-79
2023/09/25 09:33:48;;;;;;;4.18;2.40;;;;;;;;;;5061547;28;20062;-79
2023/09/25 09:36:14;;;;;;;3.95;2.20;;;;;;;;;;5061471;28;20047;-79
2023/09/25 09:38:41;;;;;;;7.10;2.05;;;;;;;;;;5059230;28;20435;-80
2023/09/25 09:41:07;;;;;;;3.97;2.22;;;;;;;;;;5059340;28;20024;-79
2023/09/25 09:43:32;;;;;;;4.63;2.35;;;;;;;;;;5045319;28;20388;-80
2023/09/25 09:45:59;;;;;;;3.33;1.90;;;;;;;;;;5072471;28;20020;-79
2023/09/25 09:48:29;;;;;;;3.47;2.03;;;;;;;;;;5074615;28;20024;-79
2023/09/25 09:51:02;;;;;;;3.42;1.92;;;;;;;;;;5075896;28;20024;-79
2023/09/25 09:53:31;;;;;;;4.60;1.95;;;;;;;;;;5052786;28;20036;-79
2023/09/25 09:55:57;;;;;;;4.97;2.00;;;;;;;;;;5046316;28;20050;-82
2023/09/25 09:58:25;;;;;;;3.38;1.80;;;;;;;;;;5068827;28;20036;-82
2023/09/25 10:00:51;;;;;;;4.47;1.75;;;;;;;;;;5061654;28;20063;-82
2023/09/25 10:03:17;;;;;;;5.53;1.80;;;;;;;;;;5078565;28;20052;-82
2023/09/25 10:05:47;;;;;;;4.38;2.10;;;;;;;;;;5052636;28;20391;-82
2023/09/25 10:08:14;;;;;;;4.57;1.85;;;;;;;;;;5068388;28;20542;-82
2023/09/25 10:10:41;;;;;;;3.13;1.70;;;;;;;;;;5051362;28;20488;-82
2023/09/25 10:13:28;;;;;;;4.05;1.75;;;;;;;;;;5067228;28;20460;-82
2023/09/25 10:16:01;;;;;;;3.47;1.67;;;;;;;;;;5045886;28;20036;-82
2023/09/25 10:18:30;;;;;;;2.80;1.58;;;;;;;;;;5066740;28;20024;-82
2023/09/25 10:21:10;;;;;;;5.47;1.33;;;;;;;;;;5056904;28;20063;-82
2023/09/25 10:23:42;;;;;;;3.50;1.45;;;;;;;;;;5063734;28;20024;-82
2023/09/25 10:26:17;;;;;;;4.97;1.85;;;;;;;;;;5065640;28;20039;-82
2023/09/25 10:28:43;;;;;;;5.32;1.70;;;;;;;;;;5065408;28;20028;-82
2023/09/25 10:31:20;;;;;;;4.18;1.73;;;;;;;;;;5058243;28;20116;-83
2023/09/25 10:34:05;;;;;;;3.65;1.48;;;;;;;;;;5064546;28;20048;-83
2023/09/25 10:36:40;;;;;;;3.50;1.67;;;;;;;;;;5057918;28;20051;-79
2023/09/25 10:39:09;;;;;;;4.32;2.22;;;;;;;;;;5039904;28;20029;-78
2023/09/25 10:41:36;;;;;;;5.65;1.80;;;;;;;;;;5055179;28;20020;-78
2023/09/25 10:44:02;;;;;;;2.80;1.50;;;;;;;;;;5058750;28;20062;-79
2023/09/25 10:46:27;;;;;;;3.80;1.50;;;;;;;;;;5047785;28;20025;-78
2023/09/25 10:48:56;;;;;;;4.68;1.50;;;;;;;;;;5051898;28;20094;-79
2023/09/25 10:51:21;;;;;;;3.53;1.55;;;;;;;;;;5078966;28;20054;-79
2023/09/25 10:53:47;;;;;;;5.50;1.70;;;;;;;;;;5051778;28;20017;-79
2023/09/25 10:56:12;;;;;;;5.13;1.83;;;;;;;;;;5049326;28;20021;-79
2023/09/25 10:58:38;;;;;;;4.22;1.80;;;;;;;;;;5069725;28;20032;-79
2023/09/25 11:01:04;;;;;;;3.03;1.60;;;;;;;;;;5038325;28;20111;-79
2023/09/25 11:03:31;;;;;;;3.70;1.60;;;;;;;;;;5064076;28;20357;-79
2023/09/25 11:05:57;;;;;;;4.43;1.52;;;;;;;;;;5070009;28;20028;-79
2023/09/25 11:08:25;;;;;;;4.57;1.73;;;;;;;;;;5041621;28;20033;-79
2023/09/25 11:10:50;;;;;;;4.93;1.67;;;;;;;;;;5070310;28;20146;-79
2023/09/25 11:13:16;;;;;;;3.53;1.60;;;;;;;;;;5053706;28;20171;-79
2023/09/25 11:15:41;;;;;;;2.97;1.55;;;;;;;;;;5058343;28;20031;-79
2023/09/25 11:18:08;;;;;;;4.43;1.52;;;;;;;;;;5077253;28;20025;-78
2023/09/25 11:20:34;;;;;;;4.82;1.90;;;;;;;;;;5058171;28;20472;-78
2023/09/25 11:23:09;;;;;;;4.70;1.65;;;;;;;;;;5072056;28;20017;-79
2023/09/25 11:25:48;;;;;;;2.92;1.48;;;;;;;;;;5071120;28;20560;-78
2023/09/25 11:28:16;;;;;;;5.40;1.58;;;;;;;;;;5074802;28;20111;-79
2023/09/25 11:30:45;;;;;;;4.53;1.73;;;;;;;;;;5056647;28;20078;-79
2023/09/25 11:33:12;;;;;;;4.03;1.85;;;;;;;;;;5074043;28;20050;-79
2023/09/25 11:35:38;;;;;;;3.15;1.65;;;;;;;;;;5075368;28;20017;-79
2023/09/25 11:38:16;;;;;;;2.65;1.45;;;;;;;;;;5075249;28;20035;-84
2023/09/25 11:40:42;;;;;;;3.30;1.40;;;;;;;;;;5049951;28;20071;-84
2023/09/25 11:43:07;;;;;;;3.72;1.40;;;;;;;;;;5062626;28;20055;-84
2023/09/25 11:45:34;;;;;;;3.30;1.50;;;;;;;;;;5049076;28;20017;-84
2023/09/25 11:48:00;;;;;;;4.35;1.77;;;;;;;;;;5057827;28;20021;-84
2023/09/25 11:50:26;;;;;;;2.85;1.60;;;;;;;;;;5068797;28;20036;-85
2023/09/25 11:52:51;;;;;;;3.30;1.42;;;;;;;;;;5078101;28;20464;-85
2023/09/25 11:55:19;;;;;;;4.55;1.70;;;;;;;;;;5045211;28;20081;-84
2023/09/25 11:57:45;;;;;;;3.63;1.50;;;;;;;;;;5065161;28;20366;-84
2023/09/25 12:00:12;;;;;;;4.22;1.90;;;;;;;;;;5074092;28;20563;-84
2023/09/25 12:02:43;;;;;;;4.35;1.70;;;;;;;;;;5042590;28;20017;-85
2023/09/25 12:05:09;;;;;;;4.25;1.40;;;;;;;;;;5069303;28;20027;-85
2023/09/25 12:07:36;;;;;;;4.20;1.70;;;;;;;;;;5056598;28;20029;-85
2023/09/25 12:10:06;;;;;;;3.45;1.55;;;;;;;;;;5049263;28;20484;-85
2023/09/25 12:12:39;;;;;;;5.63;1.60;;;;;;;;;;5058193;28;20313;-85
2023/09/25 12:15:05;;;;;;;3.60;1.60;;;;;;;;;;5053097;28;20541;-85
2023/09/25 12:17:31;;;;;;;5.30;1.90;;;;;;;;;;5049351;28;20154;-86
2023/09/25 12:19:59;;;;;;;4.63;1.88;;;;;;;;;;5077294;28;20054;-85
2023/09/25 12:22:25;;;;;;;3.95;2.00;;;;;;;;;;5074841;28;20410;-86
2023/09/25 12:24:50;;;;;;;2.65;1.50;;;;;;;;;;5067931;28;20028;-86
2023/09/25 12:27:16;;;;;;;3.47;1.63;;;;;;;;;;5055276;28;20020;-86
2023/09/25 12:29:43;;;;;;;4.55;1.60;;;;;;;;;;5061700;28;20028;-86
2023/09/25 12:32:09;;;;;;;2.67;1.42;;;;;;;;;;5040672;28;20051;-86
2023/09/25 12:34:34;;;;;;;3.35;1.60;;;;;;;;;;5050129;28;20544;-86
2023/09/25 12:36:59;;;;;;;3.20;1.30;;;;;;;;;;5071599;28;20020;-86
2023/09/25 12:39:25;;;;;;;3.38;1.50;;;;;;;;;;5055507;28;20030;-86
2023/09/25 12:41:50;;;;;;;4.63;1.50;;;;;;;;;;5048679;28;20048;-86
2023/09/25 12:44:15;;;;;;;2.78;1.55;;;;;;;;;;5056402;28;20055;-87
2023/09/25 12:46:41;;;;;;;3.28;1.60;;;;;;;;;;5049477;28;20029;-86
2023/09/25 12:49:06;;;;;;;2.83;1.40;;;;;;;;;;5056583;28;20085;-85
2023/09/25 12:51:31;;;;;;;4.53;1.50;;;;;;;;;;5067064;28;20115;-86
2023/09/25 12:53:57;;;;;;;3.58;1.50;;;;;;;;;;5057736;28;20026;-85
2023/09/25 12:56:22;;;;;;;3.17;1.52;;;;;;;;;;5057845;28;20029;-86
2023/09/25 12:58:48;;;;;;;3.83;1.65;;;;;;;;;;5060694;28;20028;-86
2023/09/25 13:01:13;;;;;;;3.58;1.73;;;;;;;;;;5058625;28;20031;-85
2023/09/25 13:03:38;;;;;;;5.22;1.73;;;;;;;;;;5070913;28;20028;-86
2023/09/25 13:06:04;;;;;;;3.05;1.50;;;;;;;;;;5061161;28;20021;-87
2023/09/25 13:08:31;;;;;;;4.15;1.70;;;;;;;;;;5063741;28;20027;-86
2023/09/25 13:10:56;;;;;;;3.35;1.80;;;;;;;;;;5066348;28;20067;-86
2023/09/25 13:13:22;;;;;;;5.32;1.70;;;;;;;;;;5076450;28;20430;-84
2023/09/25 13:15:47;;;;;;;3.00;1.55;;;;;;;;;;5065681;28;20071;-80
2023/09/25 13:18:12;;;;;;;5.05;1.50;;;;;;;;;;5030803;28;20123;-82
2023/09/25 13:20:38;;;;;;;5.65;1.45;;;;;;;;;;5041788;28;20703;-80
2023/09/25 13:23:03;;;;;;;5.32;1.70;;;;;;;;;;5049854;28;20027;-80
2023/09/25 13:25:29;;;;;;;4.72;1.85;;;;;;;;;;5045421;28;20074;-81
2023/09/25 13:27:54;;;;;;;3.72;1.52;;;;;;;;;;5047267;28;20111;-80
2023/09/25 13:30:21;;;;;;;2.55;1.42;;;;;;;;;;5071266;28;20028;-81
2023/09/25 13:32:47;;;;;;;5.35;1.42;;;;;;;;;;5052589;28;20082;-80
2023/09/25 13:35:13;;;;;;;3.92;1.58;;;;;;;;;;5041176;28;20017;-81
2023/09/25 13:37:39;;;;;;;4.65;1.60;;;;;;;;;;5056461;28;20069;-80
2023/09/25 13:40:10;;;;;;;3.67;1.70;;;;;;;;;;5064234;28;20016;-80
2023/09/25 13:42:36;;;;;;;3.58;1.48;;;;;;;;;;5040488;28;20036;-80
2023/09/25 13:45:01;;;;;;;3.65;1.70;;;;;;;;;;5046469;28;20023;-81
2023/09/25 13:47:27;;;;;;;4.45;1.50;;;;;;;;;;5039960;28;20028;-80
2023/09/25 13:49:53;;;;;;;4.05;1.50;;;;;;;;;;5047960;28;20430;-80
2023/09/25 13:52:19;;;;;;;4.05;1.52;;;;;;;;;;5042044;28;20017;-80
2023/09/25 13:54:45;;;;;;;3.38;2.15;;;;;;;;;;5048536;28;20496;-80
2023/09/25 13:57:10;;;;;;;8.25;1.98;;;;;;;;;;5039856;28;20078;-85
2023/09/25 13:59:36;;;;;;;5.80;1.60;;;;;;;;;;5044964;28;20036;-86
2023/09/25 14:02:02;;;;;;;2.80;1.30;;;;;;;;;;5054751;28;20021;-85
2023/09/25 14:04:27;;;;;;;6.78;1.67;;;;;;;;;;5047538;28;20032;-84
2023/09/25 14:06:53;;;;;;;5.13;1.58;;;;;;;;;;5039595;28;20369;-85
2023/09/25 14:09:19;;;;;;;3.45;1.50;;;;;;;;;;5061565;28;20401;-85
2023/09/25 14:11:45;;;;;;;5.00;1.90;;;;;;;;;;5043430;28;20056;-83
2023/09/25 14:14:11;;;;;;;6.63;1.48;;;;;;;;;;5061611;28;20505;-84
2023/09/25 14:16:36;;;;;;;4.03;1.63;;;;;;;;;;5056750;28;20029;-84
2023/09/25 14:19:02;;;;;;;3.30;1.40;;;;;;;;;;5054503;28;20074;-84
2023/09/25 14:21:28;;;;;;;6.03;1.58;;;;;;;;;;5063687;28;20028;-83
2023/09/25 14:23:53;;;;;;;3.80;1.55;;;;;;;;;;5055999;28;20548;-85
2023/09/25 14:26:18;;;;;;;3.47;1.67;;;;;;;;;;5062242;28;20024;-85
2023/09/25 14:28:44;;;;;;;4.55;1.48;;;;;;;;;;5062381;28;20078;-82
2023/09/25 14:31:10;;;;;;;5.47;1.88;;;;;;;;;;5041141;28;20024;-85
2023/09/25 14:33:39;;;;;;;4.75;1.50;;;;;;;;;;5053087;28;20021;-83
2023/09/25 14:36:07;;;;;;;3.17;1.80;;;;;;;;;;5041963;28;20028;-83
2023/09/25 14:38:33;;;;;;;4.57;1.67;;;;;;;;;;5045213;28;20036;-83